CheckWX is a tool to help pilots better visualize weather data.  It is not intended as a substitute for an official pre-flight weather briefing.

08:36:49 UTC

SCCI METAR
Pdte. carlos Ibañez del Campo Airport
Punta Arenas, Chile
Current

37 mins ago

SCCI 170800Z 29007KT 9999 FEW045 M01/M03 Q1004 NOSIG
Observed
Jul-17 @ 08:00 UTC
Wind
  • 290° at 7 KTS
Visibility
10,000+ meters
Flight Rules
VFR
Cloud Levels
  • Few at 4,500' AGL
Temperature
-1°C / 30°F
Dewpoint
-3°C / 27°F
Humidity
86%
Altimeter
29.65" Hg
Pressure
1003.92 hPa
Previous

2 hours ago

SCCI 170700Z 30006KT 9999 FEW045 M01/M02 Q1004 NOSIG
Observed
Jul-17 @ 07:00 UTC
Wind
  • 300° at 6 KTS
Visibility
10,000+ meters
Flight Rules
VFR
Cloud Levels
  • Few at 4,500' AGL
Temperature
-1°C / 30°F
Dewpoint
-2°C / 28°F
Humidity
93%
Altimeter
29.65" Hg
Pressure
1003.92 hPa
Previous

3 hours ago

SCCI 170600Z 33009KT 9999 FEW045 01/M02 Q1004 NOSIG
Observed
Jul-17 @ 06:00 UTC
Wind
  • 330° at 9 KTS
Visibility
10,000+ meters
Flight Rules
VFR
Cloud Levels
  • Few at 4,500' AGL
Temperature
C / 34°F
Dewpoint
-2°C / 28°F
Humidity
81%
Altimeter
29.65" Hg
Pressure
1003.92 hPa